createdAt,value
2022-07-30T00:00:07.049Z,22.33
2022-07-30T00:02:10.089Z,15.82
2022-07-30T00:04:12.618Z,17.75
2022-07-30T00:06:15.117Z,17.02
2022-07-30T00:08:17.678Z,16.08
2022-07-30T00:10:20.830Z,15.93
2022-07-30T00:12:23.388Z,17.05
2022-07-30T00:14:26.645Z,20.02
2022-07-30T00:16:29.319Z,17.83
2022-07-30T00:18:31.952Z,16.90
2022-07-30T00:20:34.782Z,16.25
2022-07-30T00:22:37.675Z,18.30
2022-07-30T00:24:40.264Z,16.98
2022-07-30T00:26:42.902Z,19.20
2022-07-30T00:28:45.542Z,16.27
2022-07-30T00:30:48.175Z,16.70
2022-07-30T00:32:57.545Z,17.38
2022-07-30T00:35:00.111Z,18.80
2022-07-30T00:37:03.322Z,16.08
2022-07-30T00:39:06.496Z,15.40
2022-07-30T00:41:09.048Z,14.60
2022-07-30T00:43:16.281Z,15.43
2022-07-30T00:45:19.055Z,19.85
2022-07-30T00:47:21.718Z,18.75
2022-07-30T00:49:24.996Z,17.58
2022-07-30T00:51:27.588Z,18.00
2022-07-30T00:53:30.221Z,23.35
2022-07-30T00:55:33.509Z,20.08
2022-07-30T00:57:36.170Z,14.20
2022-07-30T00:59:38.833Z,18.58
2022-07-30T01:01:41.519Z,15.15
2022-07-30T01:03:44.029Z,15.13
2022-07-30T01:05:47.036Z,18.60
2022-07-30T01:07:49.636Z,13.00
2022-07-30T01:09:52.173Z,19.00
2022-07-30T01:11:55.507Z,17.05
2022-07-30T01:13:58.091Z,20.08
2022-07-30T01:16:00.819Z,14.70
2022-07-30T01:18:07.270Z,19.50
2022-07-30T01:20:18.669Z,19.25
2022-07-30T15:00:09.793Z,11.50
2022-07-30T15:02:13.616Z,9.80
2022-07-30T15:04:16.438Z,14.85
2022-07-30T15:06:18.983Z,9.35
2022-07-30T15:08:21.861Z,14.43
2022-07-30T15:10:24.838Z,13.95
2022-07-30T15:12:27.915Z,13.98
2022-07-30T15:14:30.784Z,11.55
2022-07-30T15:16:33.561Z,10.05
2022-07-30T15:18:36.072Z,13.07
2022-07-30T15:20:38.644Z,9.93
2022-07-30T15:22:41.360Z,13.35
2022-07-30T15:24:43.890Z,11.25
2022-07-30T15:26:47.147Z,15.40
2022-07-30T15:28:49.812Z,12.35
2022-07-30T15:30:52.352Z,10.80
2022-07-30T15:32:54.888Z,11.93
2022-07-30T15:34:58.968Z,15.82
2022-07-30T15:37:02.849Z,14.85
2022-07-30T15:39:06.768Z,18.80
2022-07-30T15:41:13.440Z,12.48
2022-07-30T15:43:16.554Z,14.00
2022-07-30T15:45:20.348Z,12.52
2022-07-30T15:47:23.272Z,14.15
2022-07-30T15:49:26.968Z,20.90
2022-07-30T15:51:31.659Z,16.02
2022-07-30T15:53:34.255Z,21.70
2022-07-30T15:55:47.053Z,18.13
2022-07-30T15:57:50.437Z,17.33
2022-07-30T15:59:53.614Z,13.63
2022-07-30T16:01:56.491Z,12.95
2022-07-30T16:03:59.051Z,13.68
2022-07-30T16:06:01.697Z,12.38
2022-07-30T16:08:04.355Z,12.13
2022-07-30T16:10:07.330Z,14.80
2022-07-30T16:12:09.961Z,14.40
2022-07-30T16:14:12.622Z,16.23
2022-07-30T16:16:15.794Z,13.65
2022-07-30T16:18:18.375Z,16.13
2022-07-30T16:20:21.139Z,15.82
2022-07-30T16:22:24.323Z,14.15
2022-07-30T16:24:27.091Z,14.60
2022-07-30T16:26:30.923Z,15.50
2022-07-30T16:28:33.472Z,19.90
2022-07-30T16:30:50.718Z,16.90
2022-07-30T16:33:00.175Z,12.63
2022-07-30T16:35:02.805Z,16.80
2022-07-30T16:37:06.507Z,13.77
2022-07-30T16:39:09.435Z,15.13
2022-07-30T16:41:13.573Z,13.85
2022-07-30T16:43:19.543Z,13.48
2022-07-30T16:45:22.963Z,15.00
2022-07-30T16:47:25.559Z,13.93
2022-07-30T16:49:28.797Z,15.13
2022-07-30T16:51:31.903Z,16.20
2022-07-30T16:53:34.617Z,16.60
2022-07-30T16:55:37.251Z,14.43
2022-07-30T16:57:39.830Z,13.95
2022-07-30T16:59:43.745Z,14.52
2022-07-30T17:01:47.529Z,11.00
2022-07-30T17:03:50.123Z,10.65
2022-07-30T17:05:53.739Z,13.63
2022-07-30T17:07:56.643Z,13.13
2022-07-30T17:09:59.255Z,10.95
2022-07-30T17:12:02.067Z,13.10
2022-07-30T17:14:06.518Z,16.77
2022-07-30T17:16:09.529Z,12.27
2022-07-30T17:18:12.510Z,15.60
2022-07-30T17:20:15.646Z,14.80
2022-07-30T17:22:18.408Z,17.40
2022-07-30T17:24:21.252Z,14.30
2022-07-30T17:26:23.903Z,17.45
2022-07-30T17:28:27.005Z,12.00
2022-07-30T17:30:30.533Z,11.07
2022-07-30T17:32:33.319Z,15.50
2022-07-30T17:34:35.932Z,9.77
2022-07-30T17:36:39.535Z,10.70
2022-07-30T17:38:42.307Z,9.98
2022-07-30T17:40:44.987Z,17.52
2022-07-30T17:42:47.728Z,9.70
2022-07-30T17:44:50.391Z,8.65
2022-07-30T17:46:53.627Z,8.70
2022-07-30T17:48:56.262Z,9.82
2022-07-30T17:50:58.892Z,10.57
2022-07-30T17:53:06.196Z,7.72
2022-07-30T17:55:11.406Z,7.05
2022-07-30T17:57:15.453Z,10.10
2022-07-30T17:59:18.141Z,8.10
2022-07-30T18:01:20.920Z,8.65
2022-07-30T18:03:23.615Z,12.10
2022-07-30T18:05:27.611Z,9.63
2022-07-30T18:07:30.453Z,10.18
2022-07-30T18:09:39.634Z,11.20
2022-07-30T18:11:43.183Z,11.13
2022-07-30T18:13:45.882Z,13.13
2022-07-30T18:15:48.990Z,16.60
2022-07-30T18:17:51.665Z,18.10
2022-07-30T18:19:54.346Z,21.10
2022-07-30T18:21:57.524Z,16.77
2022-07-30T18:24:00.222Z,14.55
2022-07-30T18:26:03.047Z,20.92
2022-07-30T18:28:06.004Z,14.43
2022-07-30T18:30:09.162Z,14.45
2022-07-30T18:32:11.860Z,15.07
2022-07-30T18:34:14.632Z,21.77
2022-07-30T18:36:17.227Z,13.05
2022-07-30T18:38:20.062Z,15.88
2022-07-30T18:40:24.233Z,11.82
2022-07-30T18:42:27.184Z,13.40
2022-07-30T18:44:29.833Z,18.52
2022-07-30T18:46:32.457Z,12.70
2022-07-30T18:48:35.959Z,15.00
2022-07-30T18:50:38.762Z,13.15
2022-07-30T18:52:41.753Z,12.27
2022-07-30T18:54:44.318Z,12.88
2022-07-30T18:56:46.978Z,9.95
2022-07-30T18:58:49.560Z,11.50
2022-07-30T19:00:52.182Z,11.15
2022-07-30T19:02:54.893Z,10.02
2022-07-30T19:04:58.606Z,9.88
2022-07-30T19:07:01.350Z,9.30
2022-07-30T19:09:04.891Z,7.20
2022-07-30T19:11:07.341Z,9.07
2022-07-30T19:13:10.157Z,11.75
2022-07-30T19:15:14.274Z,11.65
2022-07-30T19:17:16.907Z,8.35
2022-07-30T19:19:20.091Z,9.93
2022-07-30T19:21:22.963Z,11.55
2022-07-30T19:23:25.536Z,9.43
2022-07-30T19:25:29.657Z,10.38
2022-07-30T19:27:32.267Z,8.68
2022-07-30T19:29:34.818Z,9.68
2022-07-30T19:31:37.506Z,11.00
2022-07-30T19:33:41.419Z,15.68
2022-07-30T19:35:44.099Z,12.27
2022-07-30T19:37:47.132Z,13.20
2022-07-30T19:40:05.355Z,13.07
2022-07-30T19:42:09.320Z,16.10
2022-07-30T19:44:18.563Z,16.58
2022-07-30T19:46:21.642Z,16.70
2022-07-30T19:48:29.262Z,17.52
2022-07-30T19:50:35.839Z,16.65
2022-07-30T19:52:40.571Z,19.85
2022-07-30T19:54:54.191Z,17.60
2022-07-30T19:56:56.734Z,17.90
2022-07-30T19:59:00.594Z,20.77
2022-07-30T20:01:17.331Z,16.20
2022-07-30T20:03:25.561Z,17.17
2022-07-30T20:05:31.950Z,16.80
2022-07-30T20:07:54.476Z,19.50
2022-07-30T20:09:58.440Z,18.92
2022-07-30T20:12:02.378Z,20.00
2022-07-30T20:14:05.602Z,14.88
2022-07-30T20:16:12.231Z,19.83
2022-07-30T20:18:14.913Z,15.70
2022-07-30T20:20:17.577Z,14.30
2022-07-30T20:22:29.204Z,14.95
2022-07-30T20:24:32.299Z,17.73
2022-07-30T20:26:35.002Z,16.55
2022-07-30T20:28:37.556Z,16.92
2022-07-30T20:30:40.304Z,15.82
2022-07-30T20:32:46.909Z,15.82
2022-07-30T20:34:49.669Z,14.77
2022-07-30T20:36:52.242Z,12.20
2022-07-30T20:38:56.615Z,12.98
2022-07-30T20:40:59.142Z,12.48
2022-07-30T20:43:06.171Z,15.57
2022-07-30T20:45:11.004Z,19.23
2022-07-30T20:47:37.592Z,15.20
2022-07-30T20:49:41.243Z,15.73
2022-07-30T20:51:45.029Z,20.52
2022-07-30T20:53:52.932Z,23.17
2022-07-30T20:55:55.492Z,23.67
2022-07-30T20:58:08.903Z,25.27
2022-07-30T21:00:20.202Z,22.60
2022-07-30T21:04:46.502Z,21.15
2022-07-30T21:06:50.479Z,22.63
2022-07-30T21:08:53.188Z,22.92
2022-07-30T21:10:57.858Z,23.88
2022-07-30T21:13:07.663Z,22.65
2022-07-30T21:15:15.772Z,22.80
2022-07-30T21:17:26.433Z,24.00
2022-07-30T21:19:31.024Z,21.58
2022-07-30T21:23:59.041Z,22.30
2022-07-30T21:26:07.097Z,25.27
2022-07-30T21:28:18.457Z,23.83
2022-07-30T21:30:31.286Z,30.05
2022-07-30T21:32:35.427Z,26.27
2022-07-30T21:34:40.435Z,27.75
2022-07-30T21:36:44.882Z,24.20
2022-07-30T21:38:47.526Z,33.75
2022-07-30T21:40:50.393Z,29.45
2022-07-30T21:42:52.934Z,27.52
2022-07-30T21:44:55.525Z,27.27
2022-07-30T21:46:58.162Z,27.40
2022-07-30T21:49:00.826Z,29.33
2022-07-30T21:51:03.934Z,29.20
2022-07-30T21:53:06.497Z,27.63
2022-07-30T21:55:13.221Z,26.67
2022-07-30T21:57:26.447Z,24.27
2022-07-30T21:59:29.467Z,25.77
2022-07-30T22:01:33.072Z,25.27
2022-07-30T22:04:03.680Z,27.60
2022-07-30T22:06:04.385Z,27.70
2022-07-30T22:08:08.917Z,30.40
2022-07-30T22:10:13.043Z,29.55
2022-07-30T22:12:25.917Z,33.95
2022-07-30T22:14:31.726Z,32.63
2022-07-30T22:16:34.458Z,38.33
2022-07-30T22:18:37.127Z,39.10
2022-07-30T22:20:41.824Z,34.38
2022-07-30T22:22:44.778Z,40.78
2022-07-30T22:24:48.100Z,38.75
2022-07-30T22:26:51.010Z,36.45
2022-07-30T22:28:54.282Z,38.00
2022-07-30T22:30:57.240Z,36.30
2022-07-30T22:33:20.139Z,46.90
2022-07-30T22:35:32.352Z,54.67
2022-07-30T22:37:36.744Z,38.53
2022-07-30T22:39:50.574Z,47.20
2022-07-30T22:41:54.852Z,49.85
2022-07-30T22:43:57.720Z,55.92
2022-07-30T22:46:01.071Z,51.67
2022-07-30T22:48:10.282Z,39.72
2022-07-30T22:50:14.894Z,38.40
2022-07-30T22:52:21.968Z,44.53
2022-07-30T22:54:29.247Z,37.38
2022-07-30T22:56:32.429Z,39.20
2022-07-30T22:58:35.040Z,47.42
2022-07-30T23:00:37.620Z,44.63
2022-07-30T23:02:43.016Z,46.53
2022-07-30T23:04:45.622Z,41.83
2022-07-30T23:06:48.601Z,44.95
2022-07-30T23:08:51.167Z,40.97
2022-07-30T23:10:53.987Z,44.28
2022-07-30T23:12:26.729Z,19.25
2022-07-30T23:12:27.128Z,22.20
2022-07-30T23:12:56.921Z,55.53
2022-07-30T23:14:59.725Z,127.47
2022-07-30T23:17:02.490Z,177.30
2022-07-30T23:19:06.783Z,68.80
2022-07-30T23:21:10.115Z,118.30
2022-07-30T23:23:12.704Z,84.43
2022-07-30T23:25:15.790Z,106.97
2022-07-30T23:27:18.459Z,77.20
2022-07-30T23:29:21.079Z,51.45
2022-07-30T23:31:26.790Z,87.93
2022-07-30T23:33:30.785Z,105.57
2022-07-30T23:35:33.360Z,83.18
2022-07-30T23:37:47.619Z,87.88
2022-07-30T23:39:51.561Z,135.43
2022-07-30T23:41:54.247Z,136.20
2022-07-30T23:43:56.838Z,186.38
2022-07-30T23:45:59.554Z,81.95
2022-07-30T23:48:03.433Z,91.20
2022-07-30T23:50:06.817Z,65.47
2022-07-30T23:52:09.858Z,58.15
2022-07-30T23:54:12.432Z,77.05
2022-07-30T23:56:15.981Z,62.40
2022-07-30T23:58:19.116Z,45.03
